Monte — V2FS2 — position and weather

sailwx.info

Track history (hours):
 
Tides and Currents Weather Stations Pressure Air Temp Water Temp Dewpoint Dewpoint Depression Visibility Wind Speed Wind Dir Waves Ship Positions

Monte

Last reported at 2015-Jul-02 22:32 UTC. Time now 2015-Jul-02 23:12 UTC.
Position N 43°22' W 001°54'.

Length 104 m; draft 6.2 m.

Type: Ship (hazmat cat A). MMSI: 305777000.

Date/timePositionNaut miles runAvg speedWind from/ knotsBaromVisibWave heightAir tempDewpointWater temp
2015-Jul-02 22:32N 43°22' W 001°54'0 0.0
2015-Jul-02 21:26N 43°22' W 001°54'0 0.0
2015-Jul-02 20:32N 43°22' W 001°54'0 0.0
2015-Jul-02 19:17N 43°22' W 001°54'391 7.7
2015-Jun-30 16:32N 49°49' W 003°16'9 8.7
2015-Jun-30 15:33N 49°54' W 003°04'10 9.7
2015-Jun-30 14:34N 49°58' W 002°51'1110.9
2015-Jun-30 13:33N 50°01' W 002°34'1212.1
2015-Jun-30 12:34N 50°04' W 002°16'1312.7
2015-Jun-30 11:34N 50°08' W 001°57'1211.9
2015-Jun-30 10:33N 50°11' W 001°40'1010.4
2015-Jun-30 09:34N 50°14' W 001°24'9 8.7
2015-Jun-30 08:34N 50°17' W 001°11'7 7.4
2015-Jun-30 07:34N 50°19' W 000°60'7 6.9
2015-Jun-30 06:34N 50°21' W 000°49'7 7.4
2015-Jun-30 05:33N 50°23' W 000°38'8 8.4
2015-Jun-30 04:33N 50°25' W 000°26'10 9.9
2015-Jun-30 03:33N 50°28' W 000°11'1110.7
2015-Jun-30 02:31N 50°31' E 000°06'1010.9
2015-Jun-30 01:33N 50°34' E 000°22'1010.4
2015-Jun-30 00:33N 50°38' E 000°37'10 9.8
2015-Jun-29 23:34N 50°44' E 000°49'9 8.9
2015-Jun-29 22:34N 50°49' E 001°01'8 8.1
2015-Jun-29 21:34N 50°55' E 001°10'8 8.0
2015-Jun-29 20:34N 50°60' E 001°20'9 9.3
2015-Jun-29 19:33N 51°06' E 001°31'1111.2
2015-Jun-29 18:34N 51°13' E 001°44'1211.7
2015-Jun-29 17:34N 51°23' E 001°55'1111.1
2015-Jun-29 16:34N 51°31' E 002°06'1010.2
2015-Jun-29 15:33N 51°40' E 002°17'10 9.3
2015-Jun-29 14:28N 51°47' E 002°27'64 9.3
2015-Jun-29 07:33N 52°37' E 003°32'67 9.1
2015-Jun-29 00:15N 53°29' E 004°42'7 9.9
2015-Jun-28 23:33N 53°32' E 004°53'1010.5
2015-Jun-28 22:33N 53°35' E 005°09'1010.4
2015-Jun-28 21:33N 53°38' E 005°26'1010.3
2015-Jun-28 20:33N 53°42' E 005°42'10 9.8
2015-Jun-28 19:32N 53°45' E 005°58'12 8.8
2015-Jun-28 18:07N 53°49' E 006°18'63 9.3
2015-Jun-28 11:18N 54°01' E 008°04'1910.6
2015-Jun-28 09:29N 53°58' E 008°36'8 8.4
2015-Jun-28 08:33N 53°52' E 008°45'7 7.3
2015-Jun-28 07:33N 53°51' E 008°57'7 7.1
2015-Jun-28 06:33N 53°53' E 009°08'3 3.0
2015-Jun-28 05:34N 53°55' E 009°12'8 8.0
2015-Jun-28 04:33N 54°02' E 009°18'8 6.1
2015-Jun-28 03:18N 54°09' E 009°23'5 6.7
2015-Jun-28 02:33N 54°11' E 009°31'8 7.6
2015-Jun-28 01:33N 54°17' E 009°39'6 5.8
2015-Jun-28 00:33N 54°21' E 009°46'4 4.5
2015-Jun-27 23:33N 54°21' E 009°54'6 5.7
2015-Jun-27 22:34N 54°22' E 010°04'3 2.8
2015-Jun-27 21:34N 54°22' E 010°09'2 2.1
2015-Jun-27 20:34N 54°23' E 010°11'9 9.0
2015-Jun-27 19:34N 54°31' E 010°20'10 9.2
2015-Jun-27 18:30N 54°34' E 010°36'9 9.2
2015-Jun-27 17:32N 54°35' E 010°51'10 9.9
2015-Jun-27 16:33N 54°36' E 011°08'10 9.6
2015-Jun-27 15:33N 54°33' E 011°23'10 9.9
2015-Jun-27 14:33N 54°29' E 011°39'1010.0
2015-Jun-27 13:33N 54°27' E 011°56'9 9.1
2015-Jun-27 12:33N 54°30' E 012°11'39 9.6
2015-Jun-27 08:29N 54°52' E 013°06'9 9.9
2015-Jun-27 07:33N 54°55' E 013°21'10 9.9
2015-Jun-27 06:31N 54°59' E 013°38'21 9.4
2015-Jun-27 04:19N 55°09' E 014°09'29 9.6
2015-Jun-27 01:15N 55°30' E 014°45'710.1
2015-Jun-27 00:31N 55°34' E 014°56'1110.0
2015-Jun-26 23:28N 55°39' E 015°12'9 9.7
2015-Jun-26 22:32N 55°44' E 015°26'19 9.6
2015-Jun-26 20:33N 55°53' E 015°55'287 8.9
2015-Jun-25 12:25N 59°20' E 022°07'33 8.4
2015-Jun-25 08:28N 59°35' E 023°05'8 8.9
2015-Jun-25 07:31N 59°37' E 023°21'8 8.9
2015-Jun-25 06:33N 59°40' E 023°37'9 9.2
2015-Jun-25 05:33N 59°42' E 023°55'75 9.1
2015-Jun-24 21:16N 59°60' E 026°21'6 8.8
2015-Jun-24 20:32N 60°01' E 026°33'9 9.0
2015-Jun-24 19:33N 60°00' E 026°51'79 8.8
2015-Jun-24 10:33N 60°02' E 029°30'9 9.4
2015-Jun-24 09:34N 59°58' E 029°47'9 9.2
2015-Jun-24 08:34N 59°54' E 030°04'5 4.8
2015-Jun-24 07:31N 59°53' E 030°14'0 0.0
2015-Jun-24 06:31N 59°53' E 030°14'0 0.0
2015-Jun-24 05:31N 59°53' E 030°14'0 0.0
2015-Jun-24 04:31N 59°53' E 030°14'0 0.0
2015-Jun-24 03:31N 59°53' E 030°14'0 0.0
2015-Jun-24 02:31N 59°53' E 030°14'0 0.0
2015-Jun-24 01:28N 59°53' E 030°14'0 0.0
2015-Jun-24 00:31N 59°53' E 030°14'0 0.0
2015-Jun-23 23:31N 59°53' E 030°14'0 0.0
2015-Jun-23 22:31N 59°53' E 030°14'0 0.0
2015-Jun-23 21:31N 59°53' E 030°14'0 0.0
2015-Jun-23 20:28N 59°53' E 030°14'0 0.0
2015-Jun-23 19:31N 59°53' E 030°14'0 0.0
2015-Jun-23 19:04N 59°53' E 030°14'  
Track history (hours):
 
Tides and Currents Weather Stations Pressure Air Temp Water Temp Dewpoint Dewpoint Depression Visibility Wind Speed Wind Dir Waves Ship Positions

Monte

Last reported at 2015-Jul-02 22:32 UTC. Time now 2015-Jul-02 23:12 UTC.
Position N 43°22' W 001°54'.

Length 104 m; draft 6.2 m.

Type: Ship (hazmat cat A). MMSI: 305777000.

Date/timePositionNaut miles runAvg speedWind from/ knotsBaromVisibWave heightAir tempDewpointWater temp
2015-Jul-02 22:32N 43°22' W 001°54'0 0.0
2015-Jul-02 21:26N 43°22' W 001°54'0 0.0
2015-Jul-02 20:32N 43°22' W 001°54'0 0.0
2015-Jul-02 19:17N 43°22' W 001°54'391 7.7
2015-Jun-30 16:32N 49°49' W 003°16'9 8.7
2015-Jun-30 15:33N 49°54' W 003°04'10 9.7
2015-Jun-30 14:34N 49°58' W 002°51'1110.9
2015-Jun-30 13:33N 50°01' W 002°34'1212.1
2015-Jun-30 12:34N 50°04' W 002°16'1312.7
2015-Jun-30 11:34N 50°08' W 001°57'1211.9
2015-Jun-30 10:33N 50°11' W 001°40'1010.4
2015-Jun-30 09:34N 50°14' W 001°24'9 8.7
2015-Jun-30 08:34N 50°17' W 001°11'7 7.4
2015-Jun-30 07:34N 50°19' W 000°60'7 6.9
2015-Jun-30 06:34N 50°21' W 000°49'7 7.4
2015-Jun-30 05:33N 50°23' W 000°38'8 8.4
2015-Jun-30 04:33N 50°25' W 000°26'10 9.9
2015-Jun-30 03:33N 50°28' W 000°11'1110.7
2015-Jun-30 02:31N 50°31' E 000°06'1010.9
2015-Jun-30 01:33N 50°34' E 000°22'1010.4
2015-Jun-30 00:33N 50°38' E 000°37'10 9.8
2015-Jun-29 23:34N 50°44' E 000°49'9 8.9
2015-Jun-29 22:34N 50°49' E 001°01'8 8.1
2015-Jun-29 21:34N 50°55' E 001°10'8 8.0
2015-Jun-29 20:34N 50°60' E 001°20'9 9.3
2015-Jun-29 19:33N 51°06' E 001°31'1111.2
2015-Jun-29 18:34N 51°13' E 001°44'1211.7
2015-Jun-29 17:34N 51°23' E 001°55'1111.1
2015-Jun-29 16:34N 51°31' E 002°06'1010.2
2015-Jun-29 15:33N 51°40' E 002°17'10 9.3
2015-Jun-29 14:28N 51°47' E 002°27'64 9.3
2015-Jun-29 07:33N 52°37' E 003°32'67 9.1
2015-Jun-29 00:15N 53°29' E 004°42'7 9.9
2015-Jun-28 23:33N 53°32' E 004°53'1010.5
2015-Jun-28 22:33N 53°35' E 005°09'1010.4
2015-Jun-28 21:33N 53°38' E 005°26'1010.3
2015-Jun-28 20:33N 53°42' E 005°42'10 9.8
2015-Jun-28 19:32N 53°45' E 005°58'12 8.8
2015-Jun-28 18:07N 53°49' E 006°18'63 9.3
2015-Jun-28 11:18N 54°01' E 008°04'1910.6
2015-Jun-28 09:29N 53°58' E 008°36'8 8.4
2015-Jun-28 08:33N 53°52' E 008°45'7 7.3
2015-Jun-28 07:33N 53°51' E 008°57'7 7.1
2015-Jun-28 06:33N 53°53' E 009°08'3 3.0
2015-Jun-28 05:34N 53°55' E 009°12'8 8.0
2015-Jun-28 04:33N 54°02' E 009°18'8 6.1
2015-Jun-28 03:18N 54°09' E 009°23'5 6.7
2015-Jun-28 02:33N 54°11' E 009°31'8 7.6
2015-Jun-28 01:33N 54°17' E 009°39'6 5.8
2015-Jun-28 00:33N 54°21' E 009°46'4 4.5
2015-Jun-27 23:33N 54°21' E 009°54'6 5.7
2015-Jun-27 22:34N 54°22' E 010°04'3 2.8
2015-Jun-27 21:34N 54°22' E 010°09'2 2.1
2015-Jun-27 20:34N 54°23' E 010°11'9 9.0
2015-Jun-27 19:34N 54°31' E 010°20'10 9.2
2015-Jun-27 18:30N 54°34' E 010°36'9 9.2
2015-Jun-27 17:32N 54°35' E 010°51'10 9.9
2015-Jun-27 16:33N 54°36' E 011°08'10 9.6
2015-Jun-27 15:33N 54°33' E 011°23'10 9.9
2015-Jun-27 14:33N 54°29' E 011°39'1010.0
2015-Jun-27 13:33N 54°27' E 011°56'9 9.1
2015-Jun-27 12:33N 54°30' E 012°11'39 9.6
2015-Jun-27 08:29N 54°52' E 013°06'9 9.9
2015-Jun-27 07:33N 54°55' E 013°21'10 9.9
2015-Jun-27 06:31N 54°59' E 013°38'21 9.4
2015-Jun-27 04:19N 55°09' E 014°09'29 9.6
2015-Jun-27 01:15N 55°30' E 014°45'710.1
2015-Jun-27 00:31N 55°34' E 014°56'1110.0
2015-Jun-26 23:28N 55°39' E 015°12'9 9.7
2015-Jun-26 22:32N 55°44' E 015°26'19 9.6
2015-Jun-26 20:33N 55°53' E 015°55'287 8.9
2015-Jun-25 12:25N 59°20' E 022°07'33 8.4
2015-Jun-25 08:28N 59°35' E 023°05'8 8.9
2015-Jun-25 07:31N 59°37' E 023°21'8 8.9
2015-Jun-25 06:33N 59°40' E 023°37'9 9.2
2015-Jun-25 05:33N 59°42' E 023°55'75 9.1
2015-Jun-24 21:16N 59°60' E 026°21'6 8.8
2015-Jun-24 20:32N 60°01' E 026°33'9 9.0
2015-Jun-24 19:33N 60°00' E 026°51'79 8.8
2015-Jun-24 10:33N 60°02' E 029°30'9 9.4
2015-Jun-24 09:34N 59°58' E 029°47'9 9.2
2015-Jun-24 08:34N 59°54' E 030°04'5 4.8
2015-Jun-24 07:31N 59°53' E 030°14'0 0.0
2015-Jun-24 06:31N 59°53' E 030°14'0 0.0
2015-Jun-24 05:31N 59°53' E 030°14'0 0.0
2015-Jun-24 04:31N 59°53' E 030°14'0 0.0
2015-Jun-24 03:31N 59°53' E 030°14'0 0.0
2015-Jun-24 02:31N 59°53' E 030°14'0 0.0
2015-Jun-24 01:28N 59°53' E 030°14'0 0.0
2015-Jun-24 00:31N 59°53' E 030°14'0 0.0
2015-Jun-23 23:31N 59°53' E 030°14'0 0.0
2015-Jun-23 22:31N 59°53' E 030°14'0 0.0
2015-Jun-23 21:31N 59°53' E 030°14'0 0.0
2015-Jun-23 20:28N 59°53' E 030°14'0 0.0
2015-Jun-23 19:31N 59°53' E 030°14'0 0.0
2015-Jun-23 19:04N 59°53' E 030°14'  

Dump ship's entire track history